createdAt,value
2022-10-17T00:02:23.595Z,5.33
2022-10-17T00:04:51.532Z,10.37
2022-10-17T00:07:19.479Z,5.77
2022-10-17T00:09:47.395Z,7.37
2022-10-17T00:12:15.342Z,11.50
2022-10-17T00:14:43.258Z,7.63
2022-10-17T00:17:11.190Z,6.50
2022-10-17T00:19:40.709Z,6.17
2022-10-17T00:22:08.686Z,5.87
2022-10-17T00:24:36.602Z,10.10
2022-10-17T00:27:04.690Z,11.57
2022-10-17T00:29:32.650Z,10.03
2022-10-17T00:32:00.559Z,6.23
2022-10-17T00:34:30.860Z,6.70
2022-10-17T00:37:00.099Z,5.80
2022-10-17T00:39:28.012Z,6.77
2022-10-17T00:41:55.986Z,6.60
2022-10-17T00:45:03.006Z,6.80
2022-10-17T00:47:31.657Z,10.57
2022-10-17T00:52:34.542Z,8.40
2022-10-17T00:55:05.294Z,7.27
2022-10-17T00:57:33.741Z,6.27
2022-10-17T01:00:05.998Z,6.80
2022-10-17T01:02:33.912Z,9.00
2022-10-17T01:05:02.254Z,5.60
2022-10-17T01:07:33.302Z,8.40
2022-10-17T01:10:07.134Z,6.90
2022-10-17T01:12:42.650Z,6.23
2022-10-17T01:15:14.457Z,5.40
2022-10-17T01:17:52.166Z,5.50
2022-10-17T01:20:39.506Z,6.17
2022-10-17T01:23:26.165Z,5.73
2022-10-17T01:25:58.026Z,5.77
2022-10-17T01:28:45.479Z,5.70
2022-10-17T01:31:15.972Z,9.70
2022-10-17T01:33:48.800Z,6.43
2022-10-17T01:36:26.326Z,10.93
2022-10-17T01:38:59.873Z,7.37
2022-10-17T01:41:36.357Z,16.90
2022-10-17T01:44:09.006Z,8.30
2022-10-17T01:46:39.506Z,10.03
2022-10-17T01:49:09.873Z,7.00
2022-10-17T01:51:39.977Z,7.23
2022-10-17T01:54:12.126Z,11.27
2022-10-17T01:56:41.515Z,8.37
2022-10-17T01:59:14.440Z,5.93
2022-10-17T02:01:45.816Z,7.47
2022-10-17T02:04:13.780Z,6.00
2022-10-17T02:06:41.658Z,6.07
2022-10-17T02:09:18.692Z,6.23
2022-10-17T02:11:53.790Z,6.10
2022-10-17T02:14:29.596Z,10.13
2022-10-17T02:17:06.610Z,6.63
2022-10-17T02:19:47.634Z,6.37
2022-10-17T02:22:22.149Z,7.47
2022-10-17T02:24:54.092Z,11.90
2022-10-17T02:27:28.951Z,7.73
2022-10-17T02:30:00.345Z,15.80
2022-10-17T02:32:36.248Z,6.37
2022-10-17T02:35:05.967Z,6.60
2022-10-17T02:37:34.193Z,6.37
2022-10-17T02:40:02.805Z,6.47
2022-10-17T02:42:31.618Z,8.57
2022-10-17T02:45:01.115Z,6.63
2022-10-17T02:47:34.487Z,6.63
2022-10-17T02:50:02.371Z,6.77
2022-10-17T02:52:34.637Z,8.40
2022-10-17T02:55:06.670Z,6.23
2022-10-17T02:57:37.941Z,7.20
2022-10-17T03:00:08.735Z,6.53
2022-10-17T03:02:42.847Z,8.40
2022-10-17T03:05:11.752Z,9.60
2022-10-17T03:07:39.764Z,8.30
2022-10-17T03:10:08.714Z,10.10
2022-10-17T03:12:36.668Z,7.43
2022-10-17T03:15:04.924Z,10.17
2022-10-17T03:17:33.232Z,9.17
2022-10-17T03:20:02.583Z,9.40
2022-10-17T03:22:30.628Z,11.40
2022-10-17T03:24:58.889Z,11.37
2022-10-17T03:27:27.681Z,11.10
2022-10-17T03:29:55.981Z,11.23
2022-10-17T03:32:23.943Z,8.60
2022-10-17T03:34:51.894Z,9.27
2022-10-17T03:37:21.147Z,8.60
2022-10-17T03:39:49.166Z,10.27
2022-10-17T03:42:17.089Z,15.47
2022-10-17T03:44:44.994Z,11.90
2022-10-17T03:47:14.225Z,21.20
2022-10-17T03:49:42.369Z,14.90
2022-10-17T03:52:12.685Z,20.97
2022-10-17T03:54:42.082Z,18.57
2022-10-17T03:57:10.032Z,16.50
2022-10-17T03:59:37.948Z,14.63
2022-10-17T04:02:05.887Z,15.60
2022-10-17T04:04:33.825Z,15.73
2022-10-17T04:07:01.780Z,13.63
2022-10-17T04:09:29.679Z,15.73
2022-10-17T04:11:58.947Z,15.03
2022-10-17T04:14:26.838Z,22.23
2022-10-17T04:16:54.728Z,22.27
2022-10-17T04:19:22.637Z,28.60
2022-10-17T04:21:50.605Z,28.00
2022-10-17T04:24:18.544Z,35.20
2022-10-17T04:26:46.538Z,42.93
2022-10-17T04:29:16.259Z,50.20
2022-10-17T04:31:44.326Z,35.37
2022-10-17T04:34:14.137Z,44.53
2022-10-17T04:36:42.162Z,53.70
2022-10-17T04:39:10.145Z,41.67
2022-10-17T04:41:38.181Z,45.67
2022-10-17T04:44:06.321Z,34.80
2022-10-17T04:46:37.186Z,30.50
2022-10-17T04:49:05.114Z,29.80
2022-10-17T04:51:33.081Z,23.40
2022-10-17T04:54:01.017Z,34.87
2022-10-17T04:56:28.931Z,33.23
2022-10-17T04:58:57.010Z,64.40
2022-10-17T05:01:26.366Z,66.37
2022-10-17T05:03:56.052Z,59.93
2022-10-17T05:06:25.658Z,43.07
2022-10-17T05:08:53.578Z,33.20
2022-10-17T05:11:23.174Z,20.63
2022-10-17T05:13:52.503Z,25.90
2022-10-17T05:16:20.418Z,23.90
2022-10-17T05:18:52.794Z,25.50
2022-10-17T05:21:22.886Z,26.43
2022-10-17T05:23:51.097Z,20.63
2022-10-17T05:26:19.845Z,19.63
2022-10-17T05:28:47.995Z,16.27
2022-10-17T05:31:15.975Z,18.53
2022-10-17T05:33:44.143Z,18.83
2022-10-17T05:36:12.106Z,17.77
2022-10-17T05:38:41.470Z,19.03
2022-10-17T05:41:10.612Z,21.60
2022-10-17T05:43:38.537Z,22.03
2022-10-17T05:46:07.186Z,17.20
2022-10-17T05:48:35.675Z,17.17
2022-10-17T05:51:05.525Z,13.90
2022-10-17T05:53:34.298Z,14.30
2022-10-17T05:56:05.810Z,17.00
2022-10-17T05:58:52.327Z,19.07
2022-10-17T06:01:22.110Z,13.50
2022-10-17T06:03:50.015Z,13.90
2022-10-17T06:06:18.345Z,26.37
2022-10-17T06:08:46.776Z,19.50
2022-10-17T06:11:16.340Z,14.57
2022-10-17T06:13:44.356Z,23.00
2022-10-17T06:16:12.307Z,22.27
2022-10-17T06:18:40.446Z,20.20
2022-10-17T06:21:10.077Z,18.73
2022-10-17T06:23:38.186Z,14.20
2022-10-17T06:26:07.290Z,26.10
2022-10-17T06:28:37.173Z,34.77
2022-10-17T06:31:06.896Z,23.47
2022-10-17T06:33:34.916Z,29.40
2022-10-17T06:36:03.235Z,26.93
2022-10-17T06:38:31.489Z,29.20
2022-10-17T06:41:08.239Z,29.90
2022-10-17T06:43:37.882Z,26.47
2022-10-17T06:46:06.453Z,26.23
2022-10-17T06:48:34.555Z,22.50
2022-10-17T06:51:03.278Z,20.73
2022-10-17T06:53:31.765Z,29.10
2022-10-17T06:56:03.034Z,28.07
2022-10-17T06:58:31.217Z,36.13
2022-10-17T07:01:05.168Z,40.50
2022-10-17T07:03:33.341Z,35.77
2022-10-17T07:06:01.700Z,41.63
2022-10-17T07:08:29.824Z,42.80
2022-10-17T07:10:58.064Z,47.27
2022-10-17T07:13:26.300Z,44.63
2022-10-17T07:18:27.664Z,54.50
2022-10-17T07:20:56.105Z,53.57
2022-10-17T07:23:24.844Z,52.70
2022-10-17T07:25:53.126Z,53.70
2022-10-17T07:28:21.253Z,75.57
2022-10-17T07:30:52.075Z,104.87
2022-10-17T07:33:22.384Z,74.60
2022-10-17T07:35:52.825Z,92.53
2022-10-17T07:38:20.821Z,58.23
2022-10-17T07:40:55.609Z,78.47
2022-10-17T07:43:23.953Z,75.47
2022-10-17T07:45:52.362Z,61.37
2022-10-17T07:48:20.991Z,70.60
2022-10-17T07:50:49.410Z,58.30
2022-10-17T07:53:18.972Z,72.20
2022-10-17T07:55:48.156Z,57.93
2022-10-17T07:58:16.348Z,63.07
2022-10-17T08:00:44.457Z,63.60
2022-10-17T08:03:12.595Z,57.40
2022-10-17T08:05:40.471Z,67.13
2022-10-17T08:08:08.372Z,55.90
2022-10-17T08:10:38.141Z,53.77
2022-10-17T08:13:06.030Z,52.10
2022-10-17T08:15:33.928Z,48.53
2022-10-17T08:18:02.100Z,49.20
2022-10-17T08:20:30.029Z,45.97
2022-10-17T08:22:58.106Z,44.83
2022-10-17T08:25:26.053Z,40.87
2022-10-17T08:27:55.392Z,40.97
2022-10-17T08:30:23.299Z,45.30
2022-10-17T08:32:51.198Z,44.13
2022-10-17T08:35:19.192Z,44.13
2022-10-17T08:37:47.109Z,45.57
2022-10-17T08:40:19.354Z,38.60
2022-10-17T08:43:02.277Z,41.67
2022-10-17T08:45:34.200Z,43.20
2022-10-17T08:48:03.390Z,38.03
2022-10-17T08:50:37.163Z,36.83
2022-10-17T08:53:08.961Z,40.93
2022-10-17T08:55:42.755Z,39.50
2022-10-17T08:58:20.277Z,37.80
2022-10-17T09:00:54.199Z,36.50
2022-10-17T09:03:35.662Z,35.80
2022-10-17T09:06:12.606Z,33.80
2022-10-17T09:08:47.332Z,27.77
2022-10-17T09:11:35.231Z,32.70
2022-10-17T09:14:13.394Z,28.93
2022-10-17T09:16:55.928Z,29.17
2022-10-17T09:19:27.156Z,26.93
2022-10-17T09:21:57.454Z,25.87
2022-10-17T09:24:43.745Z,25.77
2022-10-17T09:27:20.261Z,23.90
2022-10-17T09:29:51.836Z,30.30
2022-10-17T09:32:22.466Z,24.93
2022-10-17T09:34:50.442Z,22.53
2022-10-17T09:37:18.605Z,24.07
2022-10-17T09:39:46.993Z,24.63
2022-10-17T09:42:18.860Z,29.83
2022-10-17T09:44:53.351Z,23.60
2022-10-17T09:47:28.714Z,21.77
2022-10-17T09:49:56.641Z,26.47
2022-10-17T09:52:28.863Z,20.57
2022-10-17T09:55:01.475Z,24.87
2022-10-17T09:57:29.507Z,20.03
2022-10-17T10:00:01.056Z,22.20
2022-10-17T10:02:30.749Z,21.80
2022-10-17T10:05:05.887Z,21.50
2022-10-17T10:07:37.022Z,20.00
2022-10-17T10:10:06.906Z,21.10
2022-10-17T10:12:36.661Z,18.63
2022-10-17T10:15:34.608Z,24.07
2022-10-17T10:18:02.773Z,26.70
2022-10-17T10:20:33.920Z,24.70
2022-10-17T10:23:13.210Z,20.70
2022-10-17T10:25:51.223Z,21.93
2022-10-17T10:28:19.320Z,23.07
2022-10-17T10:30:52.721Z,20.87
2022-10-17T10:33:21.460Z,17.73
2022-10-17T10:35:56.793Z,20.10
2022-10-17T10:38:25.109Z,19.37
2022-10-17T10:40:54.338Z,23.40
2022-10-17T10:43:34.238Z,16.87
2022-10-17T10:46:04.202Z,23.03
2022-10-17T10:48:35.178Z,17.87
2022-10-17T10:51:06.608Z,17.90
2022-10-17T10:53:41.382Z,22.73
2022-10-17T10:56:13.756Z,19.07
2022-10-17T10:58:51.094Z,19.80
2022-10-17T11:01:29.652Z,17.90
2022-10-17T11:04:06.836Z,18.97
2022-10-17T11:06:38.142Z,21.90
2022-10-17T11:09:24.353Z,22.37
2022-10-17T11:11:57.077Z,20.10
2022-10-17T11:14:34.720Z,19.00
2022-10-17T11:17:09.544Z,24.77
2022-10-17T11:19:41.619Z,21.33
2022-10-17T11:22:14.409Z,19.80
2022-10-17T11:24:45.998Z,19.40
2022-10-17T11:27:13.926Z,21.10
2022-10-17T11:29:42.787Z,21.20
2022-10-17T11:32:16.570Z,24.83
2022-10-17T11:34:47.934Z,20.87
2022-10-17T11:37:18.717Z,23.67
2022-10-17T11:39:50.815Z,24.10
2022-10-17T11:42:22.362Z,22.73
2022-10-17T11:44:53.643Z,21.77
2022-10-17T11:47:32.875Z,23.43
2022-10-17T11:52:57.599Z,25.70
2022-10-17T11:55:27.366Z,23.27
2022-10-17T11:58:08.325Z,21.13
2022-10-17T12:00:48.890Z,22.27
2022-10-17T12:03:28.562Z,20.63
2022-10-17T12:06:01.009Z,20.43
2022-10-17T12:08:37.604Z,21.00
2022-10-17T12:11:11.822Z,21.60
2022-10-17T12:13:54.730Z,23.07
2022-10-17T12:16:40.287Z,24.23
2022-10-17T12:19:32.563Z,20.23
2022-10-17T12:22:22.740Z,21.93
2022-10-17T12:24:59.497Z,18.63
2022-10-17T12:27:38.849Z,23.57
2022-10-17T12:30:16.596Z,21.47
2022-10-17T12:33:08.087Z,20.53
2022-10-17T12:35:39.225Z,31.70
2022-10-17T12:38:23.626Z,25.03
2022-10-17T12:40:53.734Z,21.67
2022-10-17T12:43:52.976Z,21.87
2022-10-17T12:46:49.425Z,20.40
2022-10-17T12:49:39.927Z,20.47
2022-10-17T12:52:31.631Z,31.17
2022-10-17T12:55:12.587Z,18.70
2022-10-17T12:57:53.293Z,25.93
2022-10-17T13:00:25.450Z,19.63
2022-10-17T13:02:56.372Z,20.70
2022-10-17T13:05:29.348Z,22.20
2022-10-17T13:08:00.950Z,33.47
2022-10-17T13:10:30.644Z,19.73
2022-10-17T13:13:06.305Z,21.53
2022-10-17T13:15:34.866Z,26.90
2022-10-17T13:18:03.280Z,21.07
2022-10-17T13:20:33.147Z,27.13
2022-10-17T13:23:02.564Z,27.10
2022-10-17T13:25:30.501Z,25.40
2022-10-17T13:28:07.994Z,22.70
2022-10-17T13:30:37.338Z,20.60
2022-10-17T13:33:19.258Z,22.30
2022-10-17T13:35:59.964Z,19.07
2022-10-17T13:38:32.555Z,23.50
2022-10-17T13:41:16.862Z,25.07
2022-10-17T13:43:50.884Z,23.67
2022-10-17T13:46:37.287Z,23.93
2022-10-17T13:49:13.062Z,22.17
2022-10-17T13:51:44.631Z,24.37
2022-10-17T13:54:32.061Z,22.43
2022-10-17T13:57:00.606Z,22.20
2022-10-17T13:59:32.460Z,27.97
2022-10-17T14:02:01.703Z,37.20
2022-10-17T14:04:40.004Z,26.87
2022-10-17T14:07:27.041Z,23.30
2022-10-17T14:09:57.090Z,25.17
2022-10-17T14:12:25.144Z,23.93
2022-10-17T14:15:11.035Z,23.20
2022-10-17T14:17:39.592Z,23.47
2022-10-17T14:20:40.790Z,23.27
2022-10-17T14:23:21.360Z,28.60
2022-10-17T14:25:46.194Z,24.00
2022-10-17T14:28:15.909Z,27.53
2022-10-17T14:30:56.183Z,27.07
2022-10-17T14:33:28.527Z,27.80
2022-10-17T14:35:57.854Z,22.30
2022-10-17T14:38:26.545Z,24.60
2022-10-17T14:41:23.562Z,24.20
2022-10-17T14:43:54.675Z,23.23
2022-10-17T14:46:25.704Z,26.63
2022-10-17T14:48:55.970Z,26.67
2022-10-17T14:51:24.240Z,22.60
2022-10-17T14:54:06.571Z,27.63
2022-10-17T14:56:41.819Z,27.97
2022-10-17T14:59:13.750Z,23.67
2022-10-17T15:01:46.111Z,24.60
2022-10-17T15:04:14.078Z,28.07
2022-10-17T15:06:42.114Z,29.73
2022-10-17T15:09:10.911Z,25.20
2022-10-17T15:11:40.329Z,26.33
2022-10-17T15:14:08.286Z,24.70
2022-10-17T15:16:37.206Z,42.70
2022-10-17T15:19:05.105Z,27.03
2022-10-17T15:21:40.517Z,25.37
2022-10-17T15:24:11.211Z,25.47
2022-10-17T15:26:40.547Z,35.67
2022-10-17T15:29:08.568Z,59.13
2022-10-17T15:31:36.543Z,78.47
2022-10-17T15:34:04.447Z,42.87
2022-10-17T15:36:36.432Z,48.17
2022-10-17T15:39:04.594Z,39.90
2022-10-17T15:41:33.268Z,134.23
2022-10-17T15:44:02.547Z,117.97
2022-10-17T15:46:32.102Z,42.63
2022-10-17T15:49:03.734Z,39.27
2022-10-17T15:51:31.666Z,31.63
2022-10-17T15:54:01.408Z,45.53
2022-10-17T15:56:31.422Z,51.50
2022-10-17T15:58:59.437Z,42.67
2022-10-17T16:01:31.427Z,37.53
2022-10-17T16:03:59.481Z,37.13
2022-10-17T16:06:27.573Z,39.93
2022-10-17T16:08:55.470Z,37.70
2022-10-17T16:11:29.337Z,32.70
2022-10-17T16:13:58.945Z,29.33
2022-10-17T16:16:29.608Z,34.67
2022-10-17T16:18:57.625Z,31.50
2022-10-17T16:21:28.665Z,30.80
2022-10-17T16:23:56.637Z,37.07
2022-10-17T16:26:24.731Z,30.47
2022-10-17T16:28:52.808Z,33.30
2022-10-17T16:31:24.665Z,39.27
2022-10-17T16:33:55.588Z,39.63
2022-10-17T16:36:23.877Z,33.97
2022-10-17T16:38:54.051Z,38.13
2022-10-17T16:41:24.012Z,36.50
2022-10-17T16:43:53.811Z,36.20
2022-10-17T16:46:22.042Z,35.83
2022-10-17T16:48:50.010Z,33.80
2022-10-17T16:51:20.556Z,40.50
2022-10-17T16:53:50.319Z,38.93
2022-10-17T16:56:19.676Z,45.50
2022-10-17T16:58:48.532Z,35.17
2022-10-17T17:01:18.793Z,35.43
2022-10-17T17:03:47.906Z,38.37
2022-10-17T17:06:19.077Z,41.43
2022-10-17T17:08:48.635Z,45.80
2022-10-17T17:11:20.126Z,41.00
2022-10-17T17:13:48.412Z,41.77
2022-10-17T17:16:17.637Z,38.03
2022-10-17T17:18:46.203Z,37.23
2022-10-17T17:21:14.441Z,37.83
2022-10-17T17:23:44.105Z,37.53
2022-10-17T17:26:15.288Z,42.83
2022-10-17T17:28:43.854Z,42.43
2022-10-17T17:31:13.482Z,55.20
2022-10-17T17:33:42.373Z,46.37
2022-10-17T17:36:13.746Z,52.50
2022-10-17T17:38:42.273Z,48.67
2022-10-17T17:41:14.352Z,47.77
2022-10-17T17:43:42.979Z,49.53
2022-10-17T17:46:11.152Z,47.13
2022-10-17T17:48:39.475Z,43.67
2022-10-17T17:51:08.505Z,43.33
2022-10-17T17:53:37.049Z,43.97
2022-10-17T17:56:06.204Z,40.10
2022-10-17T17:58:36.255Z,40.07
2022-10-17T18:01:12.266Z,40.67
2022-10-17T18:03:42.285Z,46.70
2022-10-17T18:06:10.393Z,47.63
2022-10-17T18:08:38.386Z,51.80
2022-10-17T18:11:06.822Z,43.80
2022-10-17T18:13:36.072Z,58.80
2022-10-17T18:16:12.663Z,62.20
2022-10-17T18:18:41.377Z,56.17
2022-10-17T18:21:09.765Z,61.03
2022-10-17T18:23:38.759Z,64.40
2022-10-17T18:26:06.975Z,54.20
2022-10-17T18:28:37.145Z,65.53
2022-10-17T18:31:07.147Z,54.53
2022-10-17T18:33:35.580Z,53.47
2022-10-17T18:36:07.087Z,57.70
2022-10-17T18:38:35.382Z,64.70
2022-10-17T18:41:04.974Z,59.10
2022-10-17T18:43:34.444Z,52.00
2022-10-17T18:46:12.299Z,62.90
2022-10-17T18:48:44.405Z,55.10
2022-10-17T18:51:12.917Z,52.90
2022-10-17T18:53:41.053Z,55.43
2022-10-17T18:56:09.093Z,56.23
2022-10-17T18:58:37.702Z,40.93
2022-10-17T19:01:07.968Z,47.40
2022-10-17T19:03:36.164Z,48.13
2022-10-17T19:06:07.184Z,50.67
2022-10-17T19:08:35.168Z,42.70
2022-10-17T19:11:06.671Z,42.27
2022-10-17T19:13:34.859Z,50.87
2022-10-17T19:16:07.874Z,45.60
2022-10-17T19:18:36.433Z,45.77
2022-10-17T19:21:05.341Z,46.50
2022-10-17T19:23:35.487Z,49.80
2022-10-17T19:26:04.183Z,42.30
2022-10-17T19:28:32.223Z,36.77
2022-10-17T19:31:00.337Z,41.90
2022-10-17T19:33:29.984Z,37.23
2022-10-17T19:35:58.820Z,43.77
2022-10-17T19:38:27.300Z,59.00
2022-10-17T19:40:55.463Z,45.73
2022-10-17T19:43:23.654Z,64.47
2022-10-17T19:45:56.009Z,51.87
2022-10-17T19:48:24.087Z,51.53
2022-10-17T19:50:54.009Z,47.07
2022-10-17T19:53:24.146Z,38.67
2022-10-17T19:55:52.299Z,42.13
2022-10-17T19:58:21.017Z,46.00
2022-10-17T20:00:49.146Z,37.40
2022-10-17T20:03:18.192Z,41.93
2022-10-17T20:05:46.928Z,47.93
2022-10-17T20:08:16.781Z,64.57
2022-10-17T20:10:46.072Z,83.00
2022-10-17T20:13:14.178Z,76.27
2022-10-17T20:15:42.119Z,54.13
2022-10-17T20:18:10.493Z,51.57
2022-10-17T20:20:38.872Z,53.40
2022-10-17T20:23:06.744Z,57.87
2022-10-17T20:25:38.157Z,58.20
2022-10-17T20:28:06.222Z,40.90
2022-10-17T20:30:34.145Z,42.50
2022-10-17T20:33:02.059Z,49.77
2022-10-17T20:35:30.190Z,75.97
2022-10-17T20:37:58.428Z,59.40
2022-10-17T20:40:41.496Z,53.80
2022-10-17T20:43:12.669Z,50.57
2022-10-17T20:45:51.813Z,52.10
2022-10-17T20:48:20.868Z,46.53
2022-10-17T20:50:49.040Z,43.63
2022-10-17T20:53:36.030Z,50.60
2022-10-17T20:56:05.449Z,46.53
2022-10-17T20:58:34.729Z,46.33
2022-10-17T21:01:07.241Z,45.50
2022-10-17T21:03:38.714Z,40.87
2022-10-17T21:06:10.459Z,47.97
2022-10-17T21:08:38.717Z,44.33
2022-10-17T21:11:14.323Z,48.50
2022-10-17T21:13:43.775Z,44.83
2022-10-17T21:16:13.299Z,42.07
2022-10-17T21:18:41.841Z,39.20
2022-10-17T21:21:14.601Z,39.77
2022-10-17T21:23:43.567Z,43.23
2022-10-17T21:26:12.690Z,42.70
2022-10-17T21:28:40.938Z,54.90
2022-10-17T21:31:12.752Z,49.97
2022-10-17T21:33:41.424Z,49.93
2022-10-17T21:36:10.130Z,42.33
2022-10-17T21:38:38.601Z,47.47
2022-10-17T21:41:07.742Z,47.43
2022-10-17T21:43:36.701Z,40.33
2022-10-17T21:46:05.470Z,54.97
2022-10-17T21:48:35.344Z,37.70
2022-10-17T21:51:05.498Z,46.80
2022-10-17T21:53:33.908Z,45.87
2022-10-17T21:56:02.313Z,50.27
2022-10-17T21:58:30.307Z,48.60
2022-10-17T22:01:05.319Z,53.30
2022-10-17T22:03:35.271Z,56.03
2022-10-17T22:06:12.933Z,52.93
2022-10-17T22:08:51.593Z,56.63
2022-10-17T22:11:21.814Z,55.57
2022-10-17T22:13:49.967Z,55.60
2022-10-17T22:16:18.188Z,55.73
2022-10-17T22:18:47.460Z,53.10
2022-10-17T22:21:17.862Z,44.27
2022-10-17T22:23:48.096Z,46.17
2022-10-17T22:26:16.237Z,41.57
2022-10-17T22:28:44.199Z,40.00
2022-10-17T22:31:12.139Z,39.23
2022-10-17T22:33:41.034Z,43.20
2022-10-17T22:36:10.685Z,38.90
2022-10-17T22:38:38.613Z,33.37
2022-10-17T22:41:06.807Z,33.90
2022-10-17T22:43:34.746Z,38.90
2022-10-17T22:46:04.768Z,35.63
2022-10-17T22:48:33.375Z,34.90
2022-10-17T22:51:01.890Z,32.67
2022-10-17T22:53:31.266Z,30.67
2022-10-17T22:56:00.849Z,39.23
2022-10-17T22:58:30.577Z,31.70
2022-10-17T23:00:58.597Z,32.73
2022-10-17T23:03:28.518Z,36.00
2022-10-17T23:05:56.697Z,36.07
2022-10-17T23:08:25.269Z,35.27
2022-10-17T23:10:54.543Z,40.60
2022-10-17T23:13:22.956Z,36.33
2022-10-17T23:15:52.731Z,35.13
2022-10-17T23:18:21.395Z,35.20
2022-10-17T23:20:49.577Z,36.13
2022-10-17T23:23:18.111Z,34.17
2022-10-17T23:25:46.020Z,34.87
2022-10-17T23:28:15.438Z,40.30
2022-10-17T23:30:43.460Z,38.93
2022-10-17T23:33:12.822Z,40.60
2022-10-17T23:35:40.955Z,39.17
2022-10-17T23:38:08.964Z,38.43
2022-10-17T23:40:37.023Z,49.53
2022-10-17T23:43:05.323Z,42.87
2022-10-17T23:45:36.244Z,40.37
2022-10-17T23:48:05.637Z,36.07
2022-10-17T23:50:33.558Z,37.83
2022-10-17T23:53:01.478Z,33.20
2022-10-17T23:55:29.507Z,36.03
2022-10-17T23:57:57.378Z,32.30
